Time;durP1;ratioP1;P1;durP2;ratioP2;P2;SDS_P1;SDS_P2;PMS_P1;PMS_P2;Temp;Humidity;BMP_temperature;BMP_pressure;BME280_temperature;BME280_humidity;BME280_pressure;Samples;Min_cycle;Max_cycle;Signal;HPM_P1;HPM_P2
2022/01/29 00:02:12;;;;;;;6.47;2.00;;;0.10;99.90;;;;;;9981258;29;20215;-80
2022/01/29 00:07:34;;;;;;;6.07;1.90;;;0.20;99.90;;;;;;9968543;29;20212;-80
2022/01/29 00:12:56;;;;;;;7.03;2.20;;;0.20;99.90;;;;;;9979536;29;20231;-80
2022/01/29 00:18:18;;;;;;;4.30;2.00;;;0.20;99.90;;;;;;9968116;29;20407;-80
2022/01/29 00:23:40;;;;;;;5.23;2.10;;;0.20;99.90;;;;;;9995418;29;20222;-80
2022/01/29 00:29:09;;;;;;;6.17;1.70;;;0.20;99.90;;;;;;9980117;29;20213;-81
2022/01/29 00:34:31;;;;;;;5.07;1.90;;;0.20;99.90;;;;;;9979803;29;20291;-80
2022/01/29 00:39:53;;;;;;;9.07;2.63;;;0.30;99.90;;;;;;9992444;29;20247;-80
2022/01/29 00:45:15;;;;;;;5.80;1.80;;;0.30;99.90;;;;;;9995192;29;20209;-80
2022/01/29 00:50:39;;;;;;;5.57;2.17;;;0.30;99.90;;;;;;9980188;29;20213;-80
2022/01/29 00:56:06;;;;;;;6.33;2.57;;;0.40;99.90;;;;;;9981197;29;20284;-80
2022/01/29 01:01:28;;;;;;;4.73;2.23;;;0.30;99.90;;;;;;9955173;29;20206;-80
2022/01/29 01:06:51;;;;;;;5.87;2.13;;;0.30;99.90;;;;;;9975218;29;20211;-80
2022/01/29 01:12:12;;;;;;;7.70;2.20;;;0.40;99.90;;;;;;9965962;29;20219;-80
2022/01/29 01:17:35;;;;;;;6.77;2.40;;;0.40;99.90;;;;;;9981575;29;20259;-80
2022/01/29 01:22:57;;;;;;;3.87;2.17;;;0.50;99.90;;;;;;9928502;29;20292;-80
2022/01/29 01:28:19;;;;;;;7.03;1.97;;;0.50;99.90;;;;;;9957392;29;20199;-80
2022/01/29 01:33:43;;;;;;;5.67;1.83;;;0.50;99.90;;;;;;9993214;29;20250;-80
2022/01/29 01:39:08;;;;;;;3.57;1.50;;;0.60;99.90;;;;;;9992783;29;20242;-80
2022/01/29 01:44:45;;;;;;;8.13;2.60;;;0.60;99.90;;;;;;9993076;29;20300;-80
2022/01/29 01:50:09;;;;;;;13.30;4.37;;;0.60;99.90;;;;;;9992844;29;20276;-80
2022/01/29 01:55:31;;;;;;;13.13;4.63;;;0.50;99.90;;;;;;9977461;29;20237;-80
2022/01/29 02:00:53;;;;;;;9.73;3.90;;;0.50;99.90;;;;;;9991653;29;20192;-80
2022/01/29 02:06:19;;;;;;;9.83;3.33;;;0.40;99.90;;;;;;9992617;29;20249;-80
2022/01/29 02:11:53;;;;;;;17.23;5.83;;;0.40;99.90;;;;;;9964102;29;20222;-79
2022/01/29 02:17:16;;;;;;;9.40;3.80;;;0.40;99.90;;;;;;9964287;29;20204;-80
2022/01/29 02:22:43;;;;;;;5.50;2.63;;;0.50;99.90;;;;;;9966893;29;20265;-80
2022/01/29 02:28:11;;;;;;;4.83;2.00;;;0.50;99.90;;;;;;9953121;29;20386;-80
2022/01/29 02:33:35;;;;;;;5.80;1.90;;;0.50;99.90;;;;;;9988514;29;20483;-80
2022/01/29 02:38:59;;;;;;;4.90;1.90;;;0.50;99.90;;;;;;10003666;29;20398;-80
2022/01/29 02:44:22;;;;;;;8.07;1.93;;;0.50;99.90;;;;;;9963608;29;20237;-79
2022/01/29 02:49:44;;;;;;;4.77;1.90;;;0.50;99.90;;;;;;9963144;29;20210;-80
2022/01/29 02:55:07;;;;;;;5.50;2.10;;;0.60;99.90;;;;;;9963233;29;20455;-79
2022/01/29 03:00:29;;;;;;;9.87;2.87;;;0.60;99.90;;;;;;9958396;29;20249;-79
2022/01/29 03:05:52;;;;;;;9.00;2.90;;;0.70;99.90;;;;;;9937805;29;20243;-80
2022/01/29 03:11:19;;;;;;;9.07;2.60;;;0.70;99.90;;;;;;9974930;29;20207;-80
2022/01/29 03:16:41;;;;;;;5.87;2.47;;;0.70;99.90;;;;;;9976498;29;20244;-80
2022/01/29 03:22:06;;;;;;;8.53;3.13;;;0.70;99.90;;;;;;9990575;29;20207;-80
2022/01/29 03:27:28;;;;;;;8.63;3.37;;;0.70;99.90;;;;;;10015818;29;20207;-80
2022/01/29 03:32:50;;;;;;;7.37;3.23;;;0.70;99.90;;;;;;10015919;29;20290;-79
2022/01/29 03:38:13;;;;;;;15.43;4.37;;;0.70;99.90;;;;;;10002683;29;20217;-80
2022/01/29 03:43:42;;;;;;;12.60;3.20;;;0.60;99.90;;;;;;9986859;29;20245;-79
2022/01/29 03:49:04;;;;;;;10.90;4.30;;;0.60;99.90;;;;;;9986700;29;20268;-79
2022/01/29 03:54:26;;;;;;;12.70;4.67;;;0.50;99.90;;;;;;10015798;29;20463;-80
2022/01/29 03:59:48;;;;;;;9.17;3.60;;;0.50;99.90;;;;;;9989479;29;20202;-80
2022/01/29 04:05:11;;;;;;;11.37;3.80;;;0.50;99.90;;;;;;10015883;29;20210;-80
2022/01/29 04:10:33;;;;;;;11.67;4.00;;;0.50;99.90;;;;;;10004243;29;20218;-80
2022/01/29 04:15:56;;;;;;;10.77;3.40;;;0.50;99.90;;;;;;9988697;29;20249;-80
2022/01/29 04:21:18;;;;;;;10.47;3.90;;;0.50;99.90;;;;;;10001646;29;20202;-80
2022/01/29 04:26:40;;;;;;;17.50;3.87;;;0.50;99.90;;;;;;10013388;29;20203;-80
2022/01/29 04:32:11;;;;;;;10.00;3.23;;;0.50;99.90;;;;;;9987796;29;20521;-80
2022/01/29 04:37:34;;;;;;;15.57;3.83;;;0.60;99.90;;;;;;10007622;29;20215;-80
2022/01/29 04:42:56;;;;;;;16.93;4.63;;;0.60;99.90;;;;;;9985612;29;20485;-80
2022/01/29 04:48:18;;;;;;;14.33;4.50;;;0.60;99.90;;;;;;9994695;29;20210;-80
2022/01/29 04:53:40;;;;;;;15.43;3.93;;;0.70;99.90;;;;;;9994589;29;20235;-80
2022/01/29 04:59:04;;;;;;;16.73;4.30;;;0.70;99.90;;;;;;9993708;29;20751;-80
2022/01/29 05:04:26;;;;;;;10.67;3.67;;;0.80;99.90;;;;;;10007010;29;20200;-80
2022/01/29 05:09:48;;;;;;;13.90;4.20;;;0.80;99.90;;;;;;10006350;29;20210;-80
2022/01/29 05:15:35;;;;;;;17.53;4.50;;;0.90;99.90;;;;;;9993326;29;20227;-80
2022/01/29 05:26:57;;;;;;;18.83;4.70;;;0.90;99.90;;;;;;9999184;29;20199;-80
2022/01/29 05:32:22;;;;;;;16.23;4.43;;;0.80;99.90;;;;;;9983124;29;20207;-79
2022/01/29 05:37:45;;;;;;;12.37;4.73;;;0.90;99.90;;;;;;9993180;29;20208;-79
2022/01/29 05:43:08;;;;;;;16.77;4.97;;;0.80;99.90;;;;;;10005180;29;20235;-80
2022/01/29 05:48:30;;;;;;;12.87;4.57;;;0.90;99.90;;;;;;10005894;29;20207;-80
2022/01/29 05:53:52;;;;;;;13.03;4.53;;;0.90;99.90;;;;;;10007920;29;20407;-80
2022/01/29 05:59:14;;;;;;;14.97;4.53;;;0.80;99.90;;;;;;9979072;29;20434;-80
2022/01/29 06:04:36;;;;;;;23.10;6.83;;;1.00;99.90;;;;;;9983302;29;20291;-81
2022/01/29 06:09:58;;;;;;;31.17;8.23;;;1.00;99.90;;;;;;9982647;29;20202;-80
2022/01/29 06:15:24;;;;;;;17.77;6.60;;;1.00;99.90;;;;;;9991887;29;20309;-80
2022/01/29 06:20:52;;;;;;;22.90;6.33;;;0.90;99.90;;;;;;10014238;29;20203;-80
2022/01/29 06:26:14;;;;;;;20.87;6.73;;;0.90;99.90;;;;;;10022517;29;20429;-80
2022/01/29 06:31:36;;;;;;;26.67;8.90;;;1.00;99.90;;;;;;10004646;29;20203;-80
2022/01/29 06:36:59;;;;;;;26.10;8.27;;;1.00;99.90;;;;;;9979022;29;20231;-80
2022/01/29 06:42:21;;;;;;;27.77;7.23;;;1.00;99.90;;;;;;9990648;29;20247;-80
2022/01/29 06:47:42;;;;;;;28.17;9.57;;;1.00;99.90;;;;;;10004947;29;20215;-80
2022/01/29 06:53:05;;;;;;;27.40;6.97;;;1.10;99.90;;;;;;10003909;29;20219;-80
2022/01/29 06:58:28;;;;;;;31.70;8.97;;;1.10;99.90;;;;;;9977568;29;20211;-80
2022/01/29 07:04:10;;;;;;;28.87;10.13;;;1.10;99.90;;;;;;10003719;29;20503;-81
2022/01/29 07:09:32;;;;;;;24.73;11.40;;;1.00;99.90;;;;;;9975136;29;20256;-81
2022/01/29 07:14:54;;;;;;;16.50;6.50;;;1.10;99.90;;;;;;10002803;29;20232;-81
2022/01/29 07:20:16;;;;;;;28.27;7.53;;;1.20;99.90;;;;;;10003146;29;20203;-80
2022/01/29 07:25:38;;;;;;;20.97;6.80;;;1.20;99.90;;;;;;9989448;29;20234;-81
2022/01/29 07:31:01;;;;;;;25.87;8.57;;;1.10;99.90;;;;;;9962623;29;20246;-81
2022/01/29 07:43:43;;;;;;;23.07;9.00;;;1.10;99.90;;;;;;9806933;29;20294;-80
2022/01/29 07:49:05;;;;;;;28.43;10.97;;;1.10;99.90;;;;;;9937395;29;20215;-80
2022/01/29 07:54:27;;;;;;;29.87;11.43;;;1.10;99.90;;;;;;9936797;29;20310;-81
2022/01/29 07:59:50;;;;;;;23.27;10.97;;;1.20;99.90;;;;;;9917772;29;20197;-80
2022/01/29 08:05:13;;;;;;;32.67;10.90;;;1.30;99.90;;;;;;9941205;29;20303;-80
2022/01/29 08:10:36;;;;;;;23.23;8.47;;;1.20;99.90;;;;;;9954974;29;20232;-80
2022/01/29 08:15:58;;;;;;;24.37;10.97;;;1.30;99.90;;;;;;9906075;30;20236;-80
2022/01/29 08:21:20;;;;;;;24.63;12.00;;;1.40;99.90;;;;;;9947681;29;20242;-80
2022/01/29 08:26:42;;;;;;;26.03;11.53;;;1.40;99.90;;;;;;9930051;29;20272;-80
2022/01/29 08:32:04;;;;;;;28.57;14.53;;;1.50;99.90;;;;;;9942756;29;20525;-80
2022/01/29 08:37:26;;;;;;;51.93;25.50;;;1.50;99.90;;;;;;9942155;29;20602;-80
2022/01/29 08:42:49;;;;;;;45.83;22.63;;;1.50;99.90;;;;;;9945131;29;20254;-81
2022/01/29 08:48:11;;;;;;;22.70;14.07;;;1.60;99.90;;;;;;9942188;29;20345;-81
2022/01/29 08:53:34;;;;;;;38.33;18.23;;;1.60;99.90;;;;;;9941867;29;20232;-81
2022/01/29 08:58:56;;;;;;;23.90;13.30;;;1.60;99.90;;;;;;9941776;29;20280;-80
2022/01/29 09:04:18;;;;;;;18.47;8.50;;;1.60;99.90;;;;;;9941600;29;20211;-80
2022/01/29 09:09:44;;;;;;;22.37;10.20;;;1.70;99.90;;;;;;9941526;29;20276;-80
2022/01/29 09:15:07;;;;;;;20.57;9.93;;;1.80;99.90;;;;;;9935306;29;20232;-80
2022/01/29 09:20:30;;;;;;;39.53;22.67;;;1.80;99.90;;;;;;9956528;29;20487;-80
2022/01/29 09:25:53;;;;;;;30.60;15.80;;;1.80;99.90;;;;;;9949327;29;20210;-80
2022/01/29 09:31:15;;;;;;;38.43;18.43;;;1.80;99.90;;;;;;9891660;30;20231;-80
2022/01/29 09:36:36;;;;;;;23.70;13.83;;;1.80;99.90;;;;;;9903165;30;20249;-80
2022/01/29 09:41:58;;;;;;;16.00;10.17;;;1.80;99.90;;;;;;9890826;30;20248;-80
2022/01/29 09:47:22;;;;;;;23.43;11.50;;;1.90;99.90;;;;;;9905762;30;20207;-80
2022/01/29 09:52:45;;;;;;;15.37;10.33;;;1.90;99.90;;;;;;9902870;30;20280;-80
2022/01/29 09:58:07;;;;;;;17.87;7.97;;;1.90;99.90;;;;;;9926231;29;20502;-80
2022/01/29 10:03:29;;;;;;;19.20;11.00;;;1.90;99.90;;;;;;9939052;29;20205;-80
2022/01/29 10:08:51;;;;;;;22.57;10.23;;;1.90;99.90;;;;;;9927522;29;20253;-80
2022/01/29 10:14:15;;;;;;;14.90;9.00;;;1.90;99.90;;;;;;9948709;29;20235;-80
2022/01/29 10:19:37;;;;;;;9.17;6.33;;;1.80;99.90;;;;;;9951425;29;20211;-80
2022/01/29 10:24:59;;;;;;;11.37;7.00;;;1.70;99.90;;;;;;9939093;29;20208;-80
2022/01/29 10:30:21;;;;;;;10.50;7.17;;;1.70;99.90;;;;;;9931707;29;20525;-80
2022/01/29 10:35:45;;;;;;;11.13;7.80;;;1.70;99.90;;;;;;9954064;29;20522;-80
2022/01/29 10:41:22;;;;;;;7.40;5.00;;;1.80;99.90;;;;;;9926652;29;20245;-80
2022/01/29 10:46:55;;;;;;;8.00;5.00;;;1.80;99.90;;;;;;9925839;29;20250;-79
2022/01/29 10:52:17;;;;;;;44.07;16.60;;;1.80;99.90;;;;;;9945608;29;20290;-80
2022/01/29 10:57:47;;;;;;;16.40;6.70;;;1.80;99.90;;;;;;9937706;29;20303;-80
2022/01/29 11:03:09;;;;;;;12.87;7.13;;;1.80;99.90;;;;;;9966444;29;20197;-80
2022/01/29 11:08:32;;;;;;;6.97;5.03;;;1.80;99.90;;;;;;9937807;29;20227;-80
2022/01/29 11:13:54;;;;;;;5.27;4.40;;;1.80;99.90;;;;;;9952245;29;20447;-80
2022/01/29 11:19:16;;;;;;;8.87;4.33;;;1.80;99.90;;;;;;9937438;29;20209;-80
2022/01/29 11:24:41;;;;;;;8.03;6.07;;;1.80;99.90;;;;;;9937261;29;20273;-80
2022/01/29 11:30:15;;;;;;;7.67;5.60;;;1.80;99.90;;;;;;9900192;30;20209;-80
2022/01/29 11:35:55;;;;;;;4.87;3.37;;;1.90;99.90;;;;;;9887771;30;20236;-80
2022/01/29 11:41:17;;;;;;;8.57;6.10;;;1.80;99.90;;;;;;9923296;29;20245;-80
2022/01/29 11:46:40;;;;;;;6.97;5.17;;;1.90;99.90;;;;;;9944478;29;20215;-80
2022/01/29 11:52:21;;;;;;;4.43;3.43;;;1.90;99.90;;;;;;9947212;29;20200;-80
2022/01/29 11:58:17;;;;;;;4.30;3.40;;;1.90;99.90;;;;;;9965153;29;20239;-80
2022/01/29 12:03:45;;;;;;;6.60;4.07;;;1.90;99.90;;;;;;9981214;29;20207;-80
2022/01/29 12:09:44;;;;;;;6.00;3.97;;;2.00;99.90;;;;;;9968471;29;20213;-80
2022/01/29 12:15:09;;;;;;;5.70;3.90;;;2.10;99.90;;;;;;9957172;29;20250;-80
2022/01/29 12:20:32;;;;;;;9.73;6.27;;;2.10;99.90;;;;;;9964876;29;20204;-80
2022/01/29 12:25:59;;;;;;;6.63;3.73;;;2.10;99.90;;;;;;10010343;29;20261;-80
2022/01/29 12:31:20;;;;;;;6.53;4.00;;;2.10;99.90;;;;;;9980150;29;20259;-80
2022/01/29 12:36:43;;;;;;;3.83;3.20;;;2.10;99.90;;;;;;9995527;29;20247;-80
2022/01/29 12:47:34;;;;;;;11.63;7.40;;;2.10;99.90;;;;;;9992411;29;20232;-80
2022/01/29 12:53:06;;;;;;;6.17;4.10;;;2.10;99.90;;;;;;9981337;29;20275;-80
2022/01/29 12:58:36;;;;;;;15.40;11.20;;;2.10;99.90;;;;;;9954506;29;20208;-80
2022/01/29 13:04:08;;;;;;;15.83;11.70;;;2.10;99.90;;;;;;9979550;29;20394;-80
2022/01/29 13:09:34;;;;;;;4.80;3.93;;;2.10;99.90;;;;;;9994427;29;20226;-80
2022/01/29 13:14:57;;;;;;;9.13;5.50;;;2.10;99.90;;;;;;9960328;29;20243;-80
2022/01/29 13:20:21;;;;;;;7.97;4.27;;;2.20;99.90;;;;;;9976187;29;20237;-80
2022/01/29 13:25:43;;;;;;;10.23;4.90;;;2.20;99.90;;;;;;9980594;29;20207;-80
2022/01/29 13:31:05;;;;;;;9.17;4.80;;;2.20;99.90;;;;;;9992883;29;20250;-80
2022/01/29 13:36:35;;;;;;;20.40;9.40;;;2.20;99.90;;;;;;9978932;29;20231;-80
2022/01/29 13:42:18;;;;;;;9.17;5.60;;;2.20;99.90;;;;;;9965177;29;20249;-80
2022/01/29 13:47:59;;;;;;;12.50;5.17;;;2.20;99.90;;;;;;9977798;29;20213;-80
2022/01/29 13:53:23;;;;;;;7.57;4.67;;;2.30;99.90;;;;;;10006638;29;20195;-80
2022/01/29 13:59:18;;;;;;;18.97;8.87;;;2.30;99.90;;;;;;10003277;29;20204;-80
2022/01/29 14:04:48;;;;;;;10.70;6.00;;;2.30;99.90;;;;;;9961054;29;20205;-80
2022/01/29 14:10:14;;;;;;;11.00;6.50;;;2.40;99.90;;;;;;9969388;29;20200;-80
2022/01/29 14:15:36;;;;;;;8.67;5.97;;;2.40;99.90;;;;;;9999555;29;20271;-80
2022/01/29 14:21:01;;;;;;;6.77;4.23;;;2.50;99.90;;;;;;9992439;29;20203;-80
2022/01/29 14:26:22;;;;;;;5.20;3.80;;;2.50;99.90;;;;;;9976498;29;20212;-81
2022/01/29 14:31:44;;;;;;;10.20;5.00;;;2.60;99.90;;;;;;9979216;29;20214;-80
2022/01/29 14:37:07;;;;;;;10.57;6.63;;;2.60;99.90;;;;;;9976425;29;20400;-80
2022/01/29 14:42:32;;;;;;;9.23;5.30;;;2.50;99.90;;;;;;9988437;29;20250;-81
2022/01/29 14:47:57;;;;;;;10.20;6.27;;;2.60;99.90;;;;;;9976282;29;20212;-81
2022/01/29 14:53:20;;;;;;;12.50;6.87;;;2.60;99.90;;;;;;9988322;29;20237;-80
2022/01/29 14:58:41;;;;;;;12.47;6.93;;;2.70;99.90;;;;;;9975879;29;20365;-81
2022/01/29 15:04:03;;;;;;;25.37;12.67;;;2.70;99.90;;;;;;9975502;29;20227;-81
2022/01/29 15:09:26;;;;;;;18.33;9.30;;;2.80;99.90;;;;;;9990655;29;20591;-80
2022/01/29 15:14:48;;;;;;;14.93;7.80;;;2.80;99.90;;;;;;10010620;29;20237;-80
2022/01/29 15:20:11;;;;;;;31.03;14.43;;;2.80;99.90;;;;;;10009711;29;20212;-80
2022/01/29 15:25:35;;;;;;;19.30;9.73;;;2.90;99.90;;;;;;9962480;29;20209;-80
2022/01/29 15:30:58;;;;;;;14.30;8.27;;;2.90;99.90;;;;;;9974333;29;20206;-81
2022/01/29 15:36:20;;;;;;;14.23;6.77;;;2.90;99.90;;;;;;9962442;29;20233;-79
2022/01/29 15:41:42;;;;;;;16.60;8.20;;;3.00;99.90;;;;;;9990056;29;20272;-81
2022/01/29 15:47:04;;;;;;;12.87;6.23;;;3.00;99.90;;;;;;9962133;29;20245;-80
2022/01/29 15:52:28;;;;;;;17.80;8.33;;;3.00;99.90;;;;;;9961727;29;20203;-80
2022/01/29 15:57:50;;;;;;;16.00;5.93;;;3.10;99.90;;;;;;9989854;29;20406;-80
2022/01/29 16:03:12;;;;;;;9.27;5.80;;;3.20;99.90;;;;;;9974162;29;20276;-79
2022/01/29 16:08:34;;;;;;;13.63;7.60;;;3.30;99.90;;;;;;9964975;29;20196;-81
2022/01/29 16:13:56;;;;;;;9.70;5.97;;;3.30;99.90;;;;;;9965222;29;20243;-80
2022/01/29 16:19:20;;;;;;;8.30;4.87;;;3.40;99.90;;;;;;10001307;29;20282;-80
2022/01/29 16:24:42;;;;;;;6.97;4.33;;;3.40;99.90;;;;;;10027278;29;20207;-80
2022/01/29 16:30:06;;;;;;;6.43;4.77;;;3.50;99.90;;;;;;10029196;29;20295;-80
2022/01/29 16:35:29;;;;;;;7.27;4.63;;;3.60;99.90;;;;;;9993215;29;20433;-79
2022/01/29 16:40:51;;;;;;;16.50;7.10;;;3.70;99.90;;;;;;9980756;29;20240;-80
2022/01/29 16:46:13;;;;;;;21.80;8.60;;;3.80;99.90;;;;;;9967439;29;20208;-80
2022/01/29 16:51:35;;;;;;;29.87;11.07;;;3.80;99.90;;;;;;9992198;29;20207;-80
2022/01/29 16:56:57;;;;;;;16.33;7.43;;;3.90;99.90;;;;;;9979277;29;20238;-80
2022/01/29 17:02:19;;;;;;;12.97;6.63;;;4.10;99.90;;;;;;9993657;29;20511;-80
2022/01/29 17:07:41;;;;;;;21.50;9.57;;;4.10;99.90;;;;;;9966848;29;20506;-80
2022/01/29 17:13:03;;;;;;;6.73;4.37;;;4.10;99.90;;;;;;10007635;29;20494;-80
2022/01/29 17:18:29;;;;;;;18.23;8.07;;;4.20;99.90;;;;;;10029228;29;20272;-81
2022/01/29 17:23:50;;;;;;;18.93;7.50;;;4.40;99.90;;;;;;10045027;29;20201;-81
2022/01/29 17:29:13;;;;;;;12.67;6.37;;;4.50;99.90;;;;;;10031696;29;20206;-80
2022/01/29 17:34:38;;;;;;;10.93;5.50;;;4.50;99.90;;;;;;9968288;29;20257;-80
2022/01/29 17:40:01;;;;;;;13.50;7.37;;;4.70;99.90;;;;;;9955724;29;20245;-80
2022/01/29 17:45:23;;;;;;;7.80;3.87;;;4.80;99.90;;;;;;9956046;29;20203;-80
2022/01/29 17:50:45;;;;;;;7.00;4.43;;;4.80;99.90;;;;;;9952586;29;20212;-80
2022/01/29 17:56:08;;;;;;;22.97;12.53;;;4.90;99.90;;;;;;9952894;29;20233;-80
2022/01/29 18:01:29;;;;;;;5.47;3.40;;;4.90;99.90;;;;;;9968581;29;20246;-80
2022/01/29 18:06:51;;;;;;;4.30;2.67;;;5.10;99.90;;;;;;9965066;29;20208;-80
2022/01/29 18:12:19;;;;;;;14.17;6.63;;;5.10;99.90;;;;;;9975498;29;20380;-80
2022/01/29 18:17:41;;;;;;;10.00;4.27;;;5.10;99.90;;;;;;10026783;29;20244;-80
2022/01/29 18:23:03;;;;;;;2.77;1.97;;;5.20;99.90;;;;;;9939344;29;20203;-80
2022/01/29 18:28:25;;;;;;;2.90;2.03;;;5.20;99.90;;;;;;9938830;29;20202;-81
2022/01/29 18:33:47;;;;;;;1.80;1.60;;;5.30;99.90;;;;;;9986284;29;20203;-81
2022/01/29 18:39:13;;;;;;;2.23;1.50;;;5.40;99.90;;;;;;9989655;29;20209;-80
2022/01/29 18:44:35;;;;;;;2.90;1.47;;;5.50;99.90;;;;;;9953498;29;20207;-81
2022/01/29 18:49:57;;;;;;;3.23;1.60;;;5.50;99.90;;;;;;9953050;29;20207;-81
2022/01/29 18:55:19;;;;;;;3.67;1.93;;;5.70;99.90;;;;;;9965601;29;20307;-81
2022/01/29 19:00:42;;;;;;;3.30;2.00;;;5.80;99.90;;;;;;9965089;29;20486;-80
2022/01/29 19:06:05;;;;;;;3.97;2.10;;;5.80;99.90;;;;;;9938288;29;20217;-81
2022/01/29 19:11:31;;;;;;;3.57;1.93;;;5.90;99.90;;;;;;9957340;29;20270;-80
2022/01/29 19:16:54;;;;;;;2.27;1.10;;;5.90;99.90;;;;;;9974789;29;20474;-80
2022/01/29 19:22:16;;;;;;;3.80;2.07;;;6.00;99.90;;;;;;9940952;29;20257;-81
2022/01/29 19:27:39;;;;;;;5.77;2.07;;;6.00;99.90;;;;;;9937437;29;20210;-81
2022/01/29 19:33:02;;;;;;;5.60;2.63;;;5.90;99.90;;;;;;9945034;29;20207;-81
2022/01/29 19:38:24;;;;;;;5.10;1.87;;;5.90;99.90;;;;;;9965039;29;20274;-81
2022/01/29 19:43:46;;;;;;;7.17;2.40;;;6.00;99.90;;;;;;9965719;29;20243;-81
2022/01/29 19:49:09;;;;;;;7.20;2.43;;;6.10;99.90;;;;;;9949689;29;20213;-81
2022/01/29 19:54:30;;;;;;;12.40;3.10;;;6.10;99.90;;;;;;9965796;29;20253;-81
2022/01/29 19:59:52;;;;;;;7.70;2.27;;;6.10;99.90;;;;;;9950967;29;20286;-80
2022/01/29 20:05:35;;;;;;;9.73;2.87;;;6.20;99.90;;;;;;9961919;29;20521;-81
2022/01/29 20:10:57;;;;;;;10.03;2.83;;;6.20;99.90;;;;;;9931298;29;20211;-80
2022/01/29 20:16:21;;;;;;;10.63;2.33;;;6.20;99.90;;;;;;9958988;29;20538;-81
2022/01/29 20:21:43;;;;;;;6.07;1.70;;;6.00;99.90;;;;;;9973367;29;20232;-81
2022/01/29 20:27:05;;;;;;;2.60;1.50;;;6.00;99.90;;;;;;9993090;29;20297;-80
2022/01/29 20:32:27;;;;;;;3.90;1.10;;;6.00;99.90;;;;;;9953757;29;20227;-80
2022/01/29 20:37:50;;;;;;;3.87;1.17;;;6.00;99.90;;;;;;9930628;29;20226;-81
2022/01/29 20:43:12;;;;;;;2.17;1.20;;;6.10;99.90;;;;;;9974025;29;20234;-80
2022/01/29 20:48:34;;;;;;;3.77;1.63;;;6.00;99.90;;;;;;9995126;29;20437;-81
2022/01/29 20:53:56;;;;;;;6.43;1.93;;;6.10;99.90;;;;;;9995049;29;20205;-81
2022/01/29 20:59:18;;;;;;;5.73;1.70;;;6.10;99.90;;;;;;9994513;29;20230;-81
2022/01/29 21:04:43;;;;;;;12.03;2.60;;;6.00;99.90;;;;;;9994654;29;20213;-80
2022/01/29 21:10:05;;;;;;;11.93;2.87;;;6.00;99.90;;;;;;9993409;29;20504;-80
2022/01/29 21:15:27;;;;;;;19.03;4.10;;;6.00;99.90;;;;;;9990639;29;20233;-80
2022/01/29 21:20:50;;;;;;;17.27;4.10;;;5.90;99.90;;;;;;10006742;29;20236;-81
2022/01/29 21:26:12;;;;;;;25.70;4.47;;;5.80;99.90;;;;;;9993948;29;20277;-80
2022/01/29 21:31:34;;;;;;;16.03;4.20;;;5.90;99.90;;;;;;9993319;29;20241;-81
2022/01/29 21:36:58;;;;;;;17.97;3.47;;;5.80;99.90;;;;;;9991830;29;20578;-81
2022/01/29 21:42:20;;;;;;;21.47;3.53;;;5.80;99.90;;;;;;9977590;29;20309;-81
2022/01/29 21:47:42;;;;;;;18.83;3.93;;;5.80;99.90;;;;;;9965484;29;20218;-81
2022/01/29 21:53:05;;;;;;;15.47;3.33;;;5.80;99.90;;;;;;9992988;29;20209;-80
2022/01/29 21:58:26;;;;;;;24.27;4.17;;;5.70;99.90;;;;;;9990073;29;20595;-81
2022/01/29 22:03:48;;;;;;;19.87;4.53;;;5.40;99.90;;;;;;9977313;29;20214;-81
2022/01/29 22:09:10;;;;;;;24.80;4.00;;;5.30;99.90;;;;;;9989715;29;20208;-80
2022/01/29 22:14:32;;;;;;;21.80;3.80;;;5.20;99.90;;;;;;9958996;29;20520;-80
2022/01/29 22:19:54;;;;;;;18.57;3.67;;;5.10;99.90;;;;;;9968265;29;20482;-80
2022/01/29 22:25:17;;;;;;;21.77;3.77;;;5.10;99.90;;;;;;9976730;29;20209;-80
2022/01/29 22:30:39;;;;;;;25.70;4.20;;;5.00;99.90;;;;;;9976667;29;20228;-81
2022/01/29 22:36:04;;;;;;;17.83;3.43;;;5.00;99.90;;;;;;9991973;29;20229;-81
2022/01/29 22:41:26;;;;;;;22.77;3.80;;;4.90;99.90;;;;;;9978844;29;20289;-81
2022/01/29 22:46:48;;;;;;;21.33;3.93;;;4.90;99.90;;;;;;9975981;29;20226;-81
2022/01/29 22:52:11;;;;;;;21.33;4.10;;;5.00;99.90;;;;;;9990936;29;20201;-80
2022/01/29 22:57:34;;;;;;;20.43;3.77;;;5.10;99.90;;;;;;9975732;29;20243;-80
2022/01/29 23:02:59;;;;;;;28.73;4.47;;;5.00;99.90;;;;;;9975095;29;20277;-80
2022/01/29 23:08:21;;;;;;;27.23;3.50;;;5.10;99.90;;;;;;9953629;29;20201;-81
2022/01/29 23:13:55;;;;;;;20.70;3.27;;;5.00;99.90;;;;;;9975206;29;20209;-81
2022/01/29 23:19:25;;;;;;;26.13;3.97;;;5.10;99.90;;;;;;9950956;29;20286;-81
2022/01/29 23:24:56;;;;;;;30.27;4.10;;;5.10;99.90;;;;;;9925247;29;20214;-81
2022/01/29 23:30:20;;;;;;;22.27;4.00;;;5.00;99.90;;;;;;9949446;29;20203;-80
2022/01/29 23:35:43;;;;;;;28.57;4.67;;;5.00;99.90;;;;;;9991282;29;20394;-81
2022/01/29 23:41:05;;;;;;;24.47;4.57;;;5.00;99.90;;;;;;9985167;29;20251;-80
2022/01/29 23:52:15;;;;;;;24.20;4.87;;;5.00;99.90;;;;;;9917070;30;20244;-81
2022/01/29 23:57:39;;;;;;;18.13;3.83;;;5.00;99.90;;;;;;9917177;30;20238;-80
